Pilot Boat Vega — VEGA — position and weather

sailwx.info

Track history (hours):
 
Tides and Currents Weather Stations Pressure Air Temp Water Temp Dewpoint Dewpoint Depression Visibility Wind Speed Wind Dir Waves Ship Positions

Pilot Boat Vega

Last reported at 2018-Jul-16 10:00 UTC. Time now 2018-Jul-16 10:06 UTC.
Position N 33°45' W 118°13'.

Length 16 m; draft 1.5 m.

Type: Pilot. MMSI: 338037843.

Date/timePositionNaut miles runAvg speedWind from/ knotsBaromVisibWave heightAir tempDewpointWater temp
2018-Jul-16 10:00N 33°45' W 118°13'0 0.0
2018-Jul-16 09:29N 33°45' W 118°13'0 0.0
2018-Jul-16 09:00N 33°45' W 118°13'0 0.0
2018-Jul-16 08:29N 33°45' W 118°13'0 0.0
2018-Jul-16 07:59N 33°45' W 118°13'0 0.0
2018-Jul-16 07:30N 33°45' W 118°13'0 0.0
2018-Jul-16 06:59N 33°45' W 118°13'0 0.0
2018-Jul-16 06:30N 33°45' W 118°13'0 0.0
2018-Jul-16 06:00N 33°45' W 118°13'0 0.0
2018-Jul-16 05:30N 33°45' W 118°13'0 0.0
2018-Jul-16 05:00N 33°45' W 118°13'0 0.0
2018-Jul-16 04:28N 33°45' W 118°13'0 0.0
2018-Jul-16 04:00N 33°45' W 118°13'0 0.0
2018-Jul-16 03:24N 33°45' W 118°13'0 0.0
2018-Jul-16 03:00N 33°45' W 118°13'0 0.0
2018-Jul-16 02:28N 33°45' W 118°13'0 0.0
2018-Jul-16 01:52N 33°45' W 118°13'2 5.0
2018-Jul-16 01:30N 33°44' W 118°11'2 3.6
2018-Jul-16 01:00N 33°45' W 118°13'0 0.2
2018-Jul-16 00:31N 33°45' W 118°13'0 0.2
2018-Jul-16 00:00N 33°45' W 118°13'0 0.0
2018-Jul-15 23:30N 33°45' W 118°13'0 0.0
2018-Jul-15 23:00N 33°45' W 118°13'1 3.0
2018-Jul-15 22:30N 33°44' W 118°12'1 2.8
2018-Jul-15 21:59N 33°45' W 118°13'0 0.0
2018-Jul-15 21:30N 33°45' W 118°13'0 0.0
2018-Jul-15 20:56N 33°45' W 118°13'3 6.5
2018-Jul-15 20:25N 33°42' W 118°11'3 8.4
2018-Jul-15 20:00N 33°45' W 118°13'0 0.0
2018-Jul-15 19:28N 33°45' W 118°13'0 0.0
2018-Jul-15 18:59N 33°45' W 118°13'0 0.0
2018-Jul-15 18:26N 33°45' W 118°13'0 0.0
2018-Jul-15 17:58N 33°45' W 118°13'0 0.0
2018-Jul-15 17:29N 33°45' W 118°13'0 0.0
2018-Jul-15 17:00N 33°45' W 118°13'0 0.0
2018-Jul-15 16:29N 33°45' W 118°13'0 0.0
2018-Jul-15 15:54N 33°45' W 118°13'0 0.0
2018-Jul-15 15:25N 33°45' W 118°13'0 0.0
2018-Jul-15 14:54N 33°45' W 118°13'0 0.0
2018-Jul-15 14:25N 33°45' W 118°13'0 0.0
2018-Jul-15 14:00N 33°45' W 118°13'0 0.0
2018-Jul-15 13:30N 33°45' W 118°13'0 0.0
2018-Jul-15 13:00N 33°45' W 118°13'0 0.0
2018-Jul-15 12:29N 33°45' W 118°13'0 0.0
2018-Jul-15 11:58N 33°45' W 118°13'0 0.0
2018-Jul-15 11:30N 33°45' W 118°13'0 0.0
2018-Jul-15 10:59N 33°45' W 118°13'0 0.0
2018-Jul-15 10:30N 33°45' W 118°13'0 0.0
2018-Jul-15 09:59N 33°45' W 118°13'0 0.0
2018-Jul-15 09:30N 33°45' W 118°13'0 0.0
2018-Jul-15 08:56N 33°45' W 118°13'0 0.0
2018-Jul-15 08:31N 33°45' W 118°13'0 0.0
2018-Jul-15 08:00N 33°45' W 118°13'0 0.0
2018-Jul-15 07:31N 33°45' W 118°13'0 0.0
2018-Jul-15 07:00N 33°45' W 118°13'0 0.0
2018-Jul-15 06:29N 33°45' W 118°13'0 0.0
2018-Jul-15 06:00N 33°45' W 118°13'0 0.0
2018-Jul-15 05:30N 33°45' W 118°13'0 0.0
2018-Jul-15 04:59N 33°45' W 118°13'0 0.0
2018-Jul-15 04:30N 33°45' W 118°13'0 0.0
2018-Jul-15 04:00N 33°45' W 118°13'0 0.0
2018-Jul-15 03:30N 33°45' W 118°13'0 0.0
2018-Jul-15 03:00N 33°45' W 118°13'0 0.0
2018-Jul-15 02:29N 33°45' W 118°13'0 0.0
2018-Jul-15 01:58N 33°45' W 118°13'0 0.0
2018-Jul-15 01:30N 33°45' W 118°13'0 0.0
2018-Jul-15 01:01N 33°45' W 118°13'0 0.0
2018-Jul-15 00:31N 33°45' W 118°13'0 0.0
2018-Jul-15 00:00N 33°45' W 118°13'0 0.0
2018-Jul-14 23:30N 33°45' W 118°13'0 0.0
2018-Jul-14 22:59N 33°45' W 118°13'0 0.0
2018-Jul-14 22:29N 33°45' W 118°13'0 0.0
2018-Jul-14 21:59N 33°45' W 118°13'0 0.0
2018-Jul-14 21:25N 33°45' W 118°13'0 0.0
2018-Jul-14 20:45N 33°45' W 118°13'0 0.0
2018-Jul-14 20:29N 33°45' W 118°13'0 0.0
2018-Jul-14 20:00N 33°45' W 118°13'0 0.0
2018-Jul-14 19:28N 33°45' W 118°13'3 5.9
2018-Jul-14 19:00N 33°44' W 118°16'0 0.0
2018-Jul-14 18:30N 33°44' W 118°16'3 5.5
2018-Jul-14 18:00N 33°45' W 118°13'0 0.0
2018-Jul-14 17:30N 33°45' W 118°13'0 0.0
2018-Jul-14 17:00N 33°45' W 118°13'0 0.0
2018-Jul-14 16:29N 33°45' W 118°13'0 0.0
2018-Jul-14 16:00N 33°45' W 118°13'0 0.0
2018-Jul-14 15:28N 33°45' W 118°13'0 0.0
2018-Jul-14 14:59N 33°45' W 118°13'0 0.0
2018-Jul-14 14:29N 33°45' W 118°13'0 0.0
2018-Jul-14 13:25N 33°45' W 118°13'0 0.0
2018-Jul-14 12:42N 33°45' W 118°13'0 0.0
2018-Jul-14 12:24N 33°45' W 118°13'0 0.0
2018-Jul-14 11:51N 33°45' W 118°13'0 0.0
2018-Jul-14 11:24N 33°45' W 118°13'0 0.0
2018-Jul-14 10:54N 33°45' W 118°13'0 0.0
2018-Jul-14 10:30N 33°45' W 118°13'0 0.0
2018-Jul-14 10:00N 33°45' W 118°13'0 0.0
2018-Jul-14 09:30N 33°45' W 118°13'0 0.0
2018-Jul-14 08:59N 33°45' W 118°13'0 0.0
2018-Jul-14 08:30N 33°45' W 118°13'0 0.0
2018-Jul-14 08:00N 33°45' W 118°13'0 0.0
2018-Jul-14 07:30N 33°45' W 118°13'0 0.0
2018-Jul-14 06:56N 33°45' W 118°13'0 0.0
2018-Jul-14 06:29N 33°45' W 118°13'0 0.0
2018-Jul-14 06:00N 33°45' W 118°13'0 0.0
2018-Jul-14 05:30N 33°45' W 118°13'0 0.0
2018-Jul-14 05:00N 33°45' W 118°13'0 0.0
2018-Jul-14 04:30N 33°45' W 118°13'0 0.0
2018-Jul-14 04:00N 33°45' W 118°13'0 0.0
2018-Jul-14 03:30N 33°45' W 118°13'0 0.0
2018-Jul-14 02:59N 33°45' W 118°13'0 0.0
2018-Jul-14 02:30N 33°45' W 118°13'2 4.8
2018-Jul-14 02:00N 33°43' W 118°11'1 2.2
2018-Jul-14 01:30N 33°44' W 118°11'3 5.0
2018-Jul-14 01:00N 33°42' W 118°09'2 3.4
2018-Jul-14 00:30N 33°43' W 118°11'2 4.3
2018-Jul-13 23:59N 33°44' W 118°13'1 1.3
2018-Jul-13 23:30N 33°45' W 118°13'1 2.3
2018-Jul-13 23:01N 33°44' W 118°12'1 2.0
2018-Jul-13 22:26N 33°45' W 118°13'0 0.0
2018-Jul-13 21:57N 33°45' W 118°13'0 0.0
2018-Jul-13 21:29N 33°45' W 118°13'0 0.0
2018-Jul-13 20:51N 33°45' W 118°13'0 0.0
2018-Jul-13 20:27N 33°45' W 118°13'0 0.0
2018-Jul-13 20:00N 33°45' W 118°13'0 0.0
2018-Jul-13 19:30N 33°45' W 118°13'611.5
2018-Jul-13 19:00N 33°41' W 118°08'3 6.3
2018-Jul-13 18:30N 33°44' W 118°09'4 7.1
2018-Jul-13 17:59N 33°45' W 118°13'0 0.1
2018-Jul-13 17:24N 33°45' W 118°13'2 5.5
2018-Jul-13 17:00N 33°44' W 118°10'0 0.4
2018-Jul-13 16:30N 33°44' W 118°10'1 0.1
2018-Jul-12 22:36N 33°43' W 118°11'1 6.3
2018-Jul-12 22:30N 33°44' W 118°11'2 3.1
2018-Jul-12 21:58N 33°45' W 118°13'0 0.0
2018-Jul-12 21:29N 33°45' W 118°13'4 8.3
2018-Jul-12 21:00N 33°41' W 118°10'0 0.4
2018-Jul-12 20:31N 33°41' W 118°10'4 7.9
2018-Jul-12 19:59N 33°45' W 118°13'0 0.0
2018-Jul-12 19:30N 33°45' W 118°13'0 0.0
2018-Jul-12 19:00N 33°45' W 118°13'0 0.0
2018-Jul-12 18:30N 33°45' W 118°13'3 6.6
2018-Jul-12 18:01N 33°42' W 118°10'2 3.3
2018-Jul-12 17:30N 33°44' W 118°12'1 1.9
2018-Jul-12 17:00N 33°44' W 118°13'2 4.2
2018-Jul-12 16:29N 33°46' W 118°13'1 2.6
2018-Jul-12 15:59N 33°45' W 118°13'0 0.0
2018-Jul-12 15:25N 33°45' W 118°13'0 0.0
2018-Jul-12 14:53N 33°45' W 118°13'3 8.1
2018-Jul-12 14:31N 33°42' W 118°11'3 5.3
2018-Jul-12 13:57N 33°45' W 118°13'1 1.8
2018-Jul-12 13:31N 33°45' W 118°14'1 1.1
2018-Jul-12 12:45N 33°45' W 118°13'0 0.0
2018-Jul-12 12:29N 33°45' W 118°13'0 0.0
2018-Jul-12 11:37N 33°45' W 118°13'0 0.0
2018-Jul-12 11:29N 33°45' W 118°13'0 0.0
2018-Jul-12 10:56N 33°45' W 118°13'0 0.0
2018-Jul-12 10:28N 33°45' W 118°13'0 0.0
2018-Jul-12 09:41N 33°45' W 118°13'0 0.0
2018-Jul-12 09:23N 33°45' W 118°13'0 0.0
2018-Jul-12 08:49N 33°45' W 118°13'0 0.0
2018-Jul-12 08:26N 33°45' W 118°13'0 0.0
2018-Jul-12 08:00N 33°45' W 118°13'0 0.0
2018-Jul-12 07:21N 33°45' W 118°13'0 0.0
2018-Jul-12 06:45N 33°45' W 118°13'0 0.0
2018-Jul-12 05:49N 33°45' W 118°13'0 0.0
2018-Jul-12 05:29N 33°45' W 118°13'0 0.0
2018-Jul-12 04:58N 33°45' W 118°13'0 0.0
2018-Jul-12 04:26N 33°45' W 118°13'0 0.0
2018-Jul-12 03:59N 33°45' W 118°13'0 0.0
2018-Jul-12 03:30N 33°45' W 118°13'0 0.0
2018-Jul-12 03:00N 33°45' W 118°13'0 0.0
2018-Jul-12 02:30N 33°45' W 118°13'0 0.0
2018-Jul-12 02:00N 33°45' W 118°13'0 0.0
2018-Jul-12 01:30N 33°45' W 118°13'0 0.0
2018-Jul-12 00:56N 33°45' W 118°13'0 0.0
2018-Jul-12 00:30N 33°45' W 118°13'0 0.0
2018-Jul-12 00:00N 33°45' W 118°13'0 0.0
2018-Jul-11 23:29N 33°45' W 118°13'0 0.0
2018-Jul-11 22:57N 33°45' W 118°13'3 7.2
2018-Jul-11 22:31N 33°42' W 118°11'3 6.3
2018-Jul-11 22:00N 33°45' W 118°13'0 0.0
2018-Jul-11 21:30N 33°45' W 118°13'3 7.0
2018-Jul-11 21:01N 33°42' W 118°11'3 6.8
2018-Jul-11 20:29N 33°45' W 118°13'3 6.2
2018-Jul-11 20:01N 33°42' W 118°11'3 6.0
2018-Jul-11 19:30N 33°45' W 118°13'0 0.0
2018-Jul-11 18:59N 33°45' W 118°13'1 1.9
2018-Jul-11 18:27N 33°44' W 118°13'1 1.7
2018-Jul-11 18:01N 33°44' W 118°12'1 2.4
2018-Jul-11 17:24N 33°45' W 118°13'1 3.0
2018-Jul-11 17:00N 33°44' W 118°14'2 2.9
2018-Jul-11 16:15N 33°44' W 118°16'2 7.7
2018-Jul-11 16:00N 33°43' W 118°14'1 2.8
2018-Jul-11 15:30N 33°44' W 118°13'611.7
2018-Jul-11 15:00N 33°40' W 118°09'6 6.9
2018-Jul-11 14:08N 33°45' W 118°13'0 0.0
2018-Jul-11 13:54N 33°45' W 118°13'4 9.4
2018-Jul-11 13:30N 33°42' W 118°11'1 2.2
2018-Jul-11 13:00N 33°43' W 118°11'2 4.8
2018-Jul-11 12:30N 33°45' W 118°13'0 0.6
2018-Jul-11 12:00N 33°45' W 118°13'3 5.5
2018-Jul-11 11:30N 33°42' W 118°11'3 6.5
2018-Jul-11 10:59N 33°39' W 118°11'6 4.7
2018-Jul-11 09:44N 33°45' W 118°13'0 0.0
2018-Jul-11 09:28N 33°45' W 118°13'0 0.0
2018-Jul-11 08:57N 33°45' W 118°13'0 0.0
2018-Jul-11 08:29N 33°45' W 118°13'0 0.0
2018-Jul-11 07:56N 33°45' W 118°13'0 0.0
2018-Jul-11 07:22N 33°45' W 118°13'0 0.0
2018-Jul-11 07:00N 33°45' W 118°13'2 4.6
2018-Jul-11 06:30N 33°43' W 118°14'2 4.2
2018-Jul-11 05:57N 33°45' W 118°13'1 2.1
2018-Jul-11 05:31N 33°44' W 118°12'1 1.7
2018-Jul-11 04:57N 33°45' W 118°13'0 0.0
2018-Jul-11 04:28N 33°45' W 118°13'0 0.0
2018-Jul-11 04:00N 33°45' W 118°13'0 0.0
2018-Jul-11 03:28N 33°45' W 118°13'0 0.0
2018-Jul-11 03:00N 33°45' W 118°13'3 5.6
2018-Jul-11 02:30N 33°44' W 118°10'0 0.9
2018-Jul-11 01:59N 33°44' W 118°10'2 5.2
2018-Jul-11 01:31N 33°45' W 118°13'0 0.2
2018-Jul-11 00:59N 33°45' W 118°13'0 0.0
2018-Jul-11 00:24N 33°45' W 118°13'0 0.0
2018-Jul-11 00:00N 33°45' W 118°13'0 0.0
2018-Jul-10 23:29N 33°45' W 118°13'0 0.0
2018-Jul-10 22:51N 33°45' W 118°13'0 0.0
2018-Jul-10 19:22N 33°45' W 118°13'0 0.0
2018-Jul-10 18:53N 33°45' W 118°13'4 9.2
2018-Jul-10 18:29N 33°44' W 118°09'1 1.3
2018-Jul-10 17:58N 33°44' W 118°09'2 3.5
2018-Jul-10 17:30N 33°44' W 118°11'2 3.3
2018-Jul-10 16:57N 33°45' W 118°13'0 0.0
2018-Jul-10 16:29N 33°45' W 118°13'0 0.0
2018-Jul-10 15:48N 33°45' W 118°13'0 0.0
2018-Jul-10 15:28N 33°45' W 118°13'0 0.0
2018-Jul-10 15:00N 33°45' W 118°13'0 0.0
2018-Jul-10 14:30N 33°45' W 118°13'0 0.0
2018-Jul-10 13:58N 33°45' W 118°13'0 0.0
2018-Jul-10 13:30N 33°45' W 118°13'0 0.0
2018-Jul-10 13:00N 33°45' W 118°13'0 0.0
2018-Jul-10 12:20N 33°45' W 118°13'0 0.0
2018-Jul-10 11:58N 33°45' W 118°13'0 0.0
2018-Jul-10 11:26N 33°45' W 118°13'0 0.0
2018-Jul-10 10:56N 33°45' W 118°13'0 0.0
2018-Jul-10 10:18N 33°45' W 118°13'0 0.0
2018-Jul-10 09:55N 33°45' W 118°13'0 0.0
2018-Jul-10 09:10N 33°45' W 118°13'0 0.0
2018-Jul-10 09:00N 33°45' W 118°13'0 0.0
2018-Jul-10 08:22N 33°45' W 118°13'0 0.0
2018-Jul-10 08:00N 33°45' W 118°13'0 0.0
2018-Jul-10 07:29N 33°45' W 118°13'0 0.0
2018-Jul-10 06:54N 33°45' W 118°13'0 0.0
2018-Jul-10 06:28N 33°45' W 118°13'0 0.0
2018-Jul-10 06:00N 33°45' W 118°13'0 0.0
2018-Jul-10 05:30N 33°45' W 118°13'0 0.0
2018-Jul-10 04:54N 33°45' W 118°13'0 0.0
2018-Jul-10 04:30N 33°45' W 118°13'0 0.0
2018-Jul-10 03:56N 33°45' W 118°13'0 0.0
2018-Jul-10 03:30N 33°45' W 118°13'0 0.0
2018-Jul-10 03:00N 33°45' W 118°13'0 0.0
2018-Jul-10 02:30N 33°45' W 118°13'0 0.0
2018-Jul-10 02:00N 33°45' W 118°13'0 0.0
2018-Jul-10 01:30N 33°45' W 118°13'0 0.0
2018-Jul-10 01:00N 33°45' W 118°13'0 0.0
2018-Jul-10 00:28N 33°45' W 118°13'0 0.0
2018-Jul-09 23:58N 33°45' W 118°13'0 0.0
2018-Jul-09 23:29N 33°45' W 118°13'0 0.0
2018-Jul-09 22:58N 33°45' W 118°13'0 0.0
2018-Jul-09 22:30N 33°45' W 118°13'0 0.0
2018-Jul-09 21:59N 33°45' W 118°13'0 0.0
2018-Jul-09 21:26N 33°45' W 118°13'0 0.0
2018-Jul-09 20:52N 33°45' W 118°13'0 0.0
2018-Jul-09 20:28N 33°45' W 118°13'0 0.0
2018-Jul-09 19:59N 33°45' W 118°13'0 0.0
2018-Jul-09 19:21N 33°45' W 118°13'0 0.0
2018-Jul-09 18:59N 33°45' W 118°13'0 0.0
2018-Jul-09 18:30N 33°45' W 118°13'0 0.0
2018-Jul-09 17:46N 33°45' W 118°13'0 0.0
2018-Jul-09 17:29N 33°45' W 118°13'0 0.0
2018-Jul-09 16:47N 33°45' W 118°13'0 0.0
2018-Jul-09 16:17N 33°45' W 118°13'0 0.0
2018-Jul-09 15:59N 33°45' W 118°13'0 0.0
2018-Jul-09 15:28N 33°45' W 118°13'0 0.0
2018-Jul-09 14:58N 33°45' W 118°13'0 0.0
2018-Jul-09 14:28N 33°45' W 118°13'0 0.0
2018-Jul-09 13:56N 33°45' W 118°13'0 0.0
2018-Jul-09 13:27N 33°45' W 118°13'0 0.0
2018-Jul-09 12:58N 33°45' W 118°13'0 0.0
2018-Jul-09 12:26N 33°45' W 118°13'0 0.0
2018-Jul-09 11:53N 33°45' W 118°13'0 0.0
2018-Jul-09 11:14N 33°45' W 118°13'0 0.0
2018-Jul-09 10:50N 33°45' W 118°13'0 0.0
2018-Jul-09 10:03N 33°45' W 118°13'0 0.0
2018-Jul-09 09:55N 33°45' W 118°13'0 0.0
2018-Jul-09 09:30N 33°45' W 118°13'0 0.0
2018-Jul-09 09:00N 33°45' W 118°13'0 0.0
2018-Jul-09 08:30N 33°45' W 118°13'0 0.0
2018-Jul-09 08:00N 33°45' W 118°13'0 0.0
2018-Jul-09 07:30N 33°45' W 118°13'0 0.0
2018-Jul-09 06:59N 33°45' W 118°13'0 0.0
2018-Jul-09 06:27N 33°45' W 118°13'0 0.0
2018-Jul-09 05:58N 33°45' W 118°13'0 0.0
2018-Jul-09 05:30N 33°45' W 118°13'0 0.0
2018-Jul-09 04:57N 33°45' W 118°13'0 0.0
2018-Jul-09 04:05N 33°45' W 118°13'0 0.0
2018-Jul-09 03:54N 33°45' W 118°13'0 0.0
2018-Jul-09 03:28N 33°45' W 118°13'0 0.0
2018-Jul-09 02:54N 33°45' W 118°13'0 0.0
2018-Jul-09 02:29N 33°45' W 118°13'0 0.0
2018-Jul-09 01:52N 33°45' W 118°13'0 0.0
2018-Jul-09 01:25N 33°45' W 118°13'0 0.0
2018-Jul-09 01:00N 33°45' W 118°13'0 0.0
2018-Jul-09 00:28N 33°45' W 118°13'0 0.0
2018-Jul-08 23:59N 33°45' W 118°13'0 0.0
2018-Jul-08 23:24N 33°45' W 118°13'0 0.0
2018-Jul-08 23:00N 33°45' W 118°13'0 0.0
2018-Jul-08 22:30N 33°45' W 118°13'0 0.0
2018-Jul-08 21:48N 33°45' W 118°13'0 0.0
2018-Jul-08 21:30N 33°45' W 118°13'0 0.0
2018-Jul-08 20:59N 33°45' W 118°13'0 0.0
2018-Jul-08 20:27N 33°45' W 118°13'0 0.0
2018-Jul-08 19:57N 33°45' W 118°13'0 0.0
2018-Jul-08 19:30N 33°45' W 118°13'0 0.0
2018-Jul-08 18:57N 33°45' W 118°13'0 0.0
2018-Jul-08 18:10N 33°45' W 118°13'0 0.0
2018-Jul-08 17:54N 33°45' W 118°13'0 0.0
2018-Jul-08 17:14N 33°45' W 118°13'0 0.0
2018-Jul-08 16:54N 33°45' W 118°13'0 0.0
2018-Jul-08 16:30N 33°45' W 118°13'0 0.0
2018-Jul-08 16:00N 33°45' W 118°13'0 0.0
2018-Jul-08 15:30N 33°45' W 118°13'0 0.0
2018-Jul-08 15:00N 33°45' W 118°13'0 0.0
2018-Jul-08 14:29N 33°45' W 118°13'0 0.0
2018-Jul-08 13:57N 33°45' W 118°13'0 0.0
2018-Jul-08 13:23N 33°45' W 118°13'0 0.0
2018-Jul-08 12:57N 33°45' W 118°13'0 0.0
2018-Jul-08 12:27N 33°45' W 118°13'0 0.0
2018-Jul-08 12:00N 33°45' W 118°13'0 0.0
2018-Jul-08 11:29N 33°45' W 118°13'0 0.0
2018-Jul-08 10:52N 33°45' W 118°13'4 9.8
2018-Jul-08 10:31N 33°44' W 118°09'4 6.6
2018-Jul-08 09:58N 33°45' W 118°13'0 0.0
2018-Jul-08 09:28N 33°45' W 118°13'0 0.0
2018-Jul-08 08:51N 33°45' W 118°13'0 0.0
2018-Jul-08 08:23N 33°45' W 118°13'0 0.0
2018-Jul-08 07:57N 33°45' W 118°13'0 0.0
2018-Jul-08 07:27N 33°45' W 118°13'0 0.0
2018-Jul-08 06:53N 33°45' W 118°13'0 0.0
2018-Jul-08 06:30N 33°45' W 118°13'0 0.0
2018-Jul-08 05:53N 33°45' W 118°13'0 0.0
2018-Jul-08 05:25N 33°45' W 118°13'0 0.0
2018-Jul-08 04:58N 33°45' W 118°13'3 6.5
2018-Jul-08 04:31N 33°44' W 118°10'1 1.9
2018-Jul-08 04:00N 33°44' W 118°11'2 3.4
2018-Jul-08 03:24N 33°45' W 118°13'0 0.0
2018-Jul-08 03:00N 33°45' W 118°13'0 0.0
2018-Jul-08 02:29N 33°45' W 118°13'0 0.0
2018-Jul-08 01:57N 33°45' W 118°13'0 0.0
2018-Jul-08 01:30N 33°45' W 118°13'0 0.0
2018-Jul-08 00:59N 33°45' W 118°13'0 0.0
2018-Jul-08 00:29N 33°45' W 118°13'0 0.0
2018-Jul-08 00:00N 33°45' W 118°13'2 4.5
2018-Jul-07 23:30N 33°43' W 118°11'0 0.7
2018-Jul-07 23:00N 33°43' W 118°11'2 3.5
2018-Jul-07 22:30N 33°44' W 118°13'1 1.1
2018-Jul-07 21:54N 33°45' W 118°13'512.4
2018-Jul-07 21:30N 33°41' W 118°09'4 8.8
2018-Jul-07 21:01N 33°44' W 118°12'3 6.9
2018-Jul-07 20:30N 33°41' W 118°11'4 8.6
2018-Jul-07 20:01N 33°45' W 118°13'2 3.3
2018-Jul-07 19:30N 33°44' W 118°11'0 0.1
2018-Jul-07 19:00N 33°44' W 118°11'1 1.6
2018-Jul-07 18:30N 33°43' W 118°11'2 3.4
2018-Jul-07 17:53N 33°45' W 118°13'0 0.0
2018-Jul-07 17:28N 33°45' W 118°13'3 5.8
2018-Jul-07 16:59N 33°44' W 118°16'0 0.2
2018-Jul-07 16:30N 33°44' W 118°16'3 4.3
2018-Jul-07 15:53N 33°45' W 118°13'0 0.0
2018-Jul-07 15:30N 33°45' W 118°13'0 0.0
2018-Jul-07 14:59N 33°45' W 118°13'0 0.0
2018-Jul-07 14:29N 33°45' W 118°13'0 0.0
2018-Jul-07 14:00N 33°45' W 118°13'2 4.3
2018-Jul-07 13:31N 33°43' W 118°12'1 1.6
2018-Jul-07 13:01N 33°43' W 118°11'2 3.8
2018-Jul-07 12:31N 33°42' W 118°11'3 6.7
2018-Jul-07 11:59N 33°45' W 118°13'0 0.0
2018-Jul-07 11:25N 33°45' W 118°13'0 0.0
2018-Jul-07 10:57N 33°45' W 118°13'0 0.0
2018-Jul-07 10:30N 33°45' W 118°13'0 0.0
2018-Jul-07 10:00N 33°45' W 118°13'0 0.2
2018-Jul-07 09:31N 33°45' W 118°13'0 0.0
2018-Jul-07 09:00N 33°45' W 118°13'0 0.1
2018-Jul-07 08:30N 33°45' W 118°13'0 0.0
2018-Jul-07 08:00N 33°45' W 118°13'1 1.5
2018-Jul-07 07:27N 33°46' W 118°13'1 1.8
2018-Jul-07 07:00N 33°45' W 118°13'0 0.0
2018-Jul-07 06:30N 33°45' W 118°13'0 0.0
2018-Jul-07 06:00N 33°45' W 118°13'0 0.0
2018-Jul-07 05:30N 33°45' W 118°13'5 9.2
2018-Jul-07 05:01N 33°41' W 118°10'2 4.2
2018-Jul-07 04:29N 33°43' W 118°11'1 1.9
2018-Jul-07 03:59N 33°44' W 118°12'1 2.9
2018-Jul-07 03:29N 33°45' W 118°13'0 0.0
2018-Jul-07 02:59N 33°45' W 118°13'0 0.0
2018-Jul-07 02:29N 33°45' W 118°13'1 2.2
2018-Jul-07 02:00N 33°44' W 118°13'2 4.7
2018-Jul-07 01:30N 33°45' W 118°11'0 0.2
2018-Jul-07 01:00N 33°45' W 118°11'2 3.3
2018-Jul-07 00:29N 33°46' W 118°13'1 1.3
2018-Jul-06 23:55N 33°45' W 118°13'0 0.0
2018-Jul-06 23:30N 33°45' W 118°13'0 0.0
2018-Jul-06 22:59N 33°45' W 118°13'0 0.0
2018-Jul-06 22:30N 33°45' W 118°13'0 0.0
2018-Jul-06 22:00N 33°45' W 118°13'0 0.0
2018-Jul-06 21:30N 33°45' W 118°13'0 0.0
2018-Jul-06 20:57N 33°45' W 118°13'0 0.0
2018-Jul-06 20:29N 33°45' W 118°13'1 1.3
2018-Jul-06 19:59N 33°46' W 118°13'1 1.4
2018-Jul-06 19:30N 33°45' W 118°13'0 0.0
2018-Jul-06 18:54N 33°45' W 118°13'3 7.0
2018-Jul-06 18:30N 33°43' W 118°16'3 5.5
2018-Jul-06 18:00N 33°44' W 118°13'1 1.1
2018-Jul-06 17:29N 33°45' W 118°13'0 0.0
2018-Jul-06 17:00N 33°45' W 118°13'0 0.0
2018-Jul-06 16:31N 33°45' W 118°13'0 0.0
2018-Jul-06 16:00N 33°45' W 118°13'0 0.0
2018-Jul-06 15:29N 33°45' W 118°13'0 0.0
2018-Jul-06 14:59N 33°45' W 118°13'0 0.0
2018-Jul-06 14:31N 33°45' W 118°13'0 0.0
2018-Jul-06 13:57N 33°45' W 118°13'0 0.0
2018-Jul-06 13:30N 33°45' W 118°13'0 0.0
2018-Jul-06 13:00N 33°45' W 118°13'0 0.0
2018-Jul-06 12:29N 33°45' W 118°13'0 0.0
2018-Jul-06 11:58N 33°45' W 118°13'0 0.0
2018-Jul-06 11:31N 33°45' W 118°13'0 0.0
2018-Jul-06 11:00N 33°45' W 118°13'0 0.0
2018-Jul-06 10:29N 33°45' W 118°13'  
Track history (hours):
 
Tides and Currents Weather Stations Pressure Air Temp Water Temp Dewpoint Dewpoint Depression Visibility Wind Speed Wind Dir Waves Ship Positions

Pilot Boat Vega

Last reported at 2018-Jul-16 10:00 UTC. Time now 2018-Jul-16 10:06 UTC.
Position N 33°45' W 118°13'.

Length 16 m; draft 1.5 m.

Type: Pilot. MMSI: 338037843.

Date/timePositionNaut miles runAvg speedWind from/ knotsBaromVisibWave heightAir tempDewpointWater temp
2018-Jul-16 10:00N 33°45' W 118°13'0 0.0
2018-Jul-16 09:29N 33°45' W 118°13'0 0.0
2018-Jul-16 09:00N 33°45' W 118°13'0 0.0
2018-Jul-16 08:29N 33°45' W 118°13'0 0.0
2018-Jul-16 07:59N 33°45' W 118°13'0 0.0
2018-Jul-16 07:30N 33°45' W 118°13'0 0.0
2018-Jul-16 06:59N 33°45' W 118°13'0 0.0
2018-Jul-16 06:30N 33°45' W 118°13'0 0.0
2018-Jul-16 06:00N 33°45' W 118°13'0 0.0
2018-Jul-16 05:30N 33°45' W 118°13'0 0.0
2018-Jul-16 05:00N 33°45' W 118°13'0 0.0
2018-Jul-16 04:28N 33°45' W 118°13'0 0.0
2018-Jul-16 04:00N 33°45' W 118°13'0 0.0
2018-Jul-16 03:24N 33°45' W 118°13'0 0.0
2018-Jul-16 03:00N 33°45' W 118°13'0 0.0
2018-Jul-16 02:28N 33°45' W 118°13'0 0.0
2018-Jul-16 01:52N 33°45' W 118°13'2 5.0
2018-Jul-16 01:30N 33°44' W 118°11'2 3.6
2018-Jul-16 01:00N 33°45' W 118°13'0 0.2
2018-Jul-16 00:31N 33°45' W 118°13'0 0.2
2018-Jul-16 00:00N 33°45' W 118°13'0 0.0
2018-Jul-15 23:30N 33°45' W 118°13'0 0.0
2018-Jul-15 23:00N 33°45' W 118°13'1 3.0
2018-Jul-15 22:30N 33°44' W 118°12'1 2.8
2018-Jul-15 21:59N 33°45' W 118°13'0 0.0
2018-Jul-15 21:30N 33°45' W 118°13'0 0.0
2018-Jul-15 20:56N 33°45' W 118°13'3 6.5
2018-Jul-15 20:25N 33°42' W 118°11'3 8.4
2018-Jul-15 20:00N 33°45' W 118°13'0 0.0
2018-Jul-15 19:28N 33°45' W 118°13'0 0.0
2018-Jul-15 18:59N 33°45' W 118°13'0 0.0
2018-Jul-15 18:26N 33°45' W 118°13'0 0.0
2018-Jul-15 17:58N 33°45' W 118°13'0 0.0
2018-Jul-15 17:29N 33°45' W 118°13'0 0.0
2018-Jul-15 17:00N 33°45' W 118°13'0 0.0
2018-Jul-15 16:29N 33°45' W 118°13'0 0.0
2018-Jul-15 15:54N 33°45' W 118°13'0 0.0
2018-Jul-15 15:25N 33°45' W 118°13'0 0.0
2018-Jul-15 14:54N 33°45' W 118°13'0 0.0
2018-Jul-15 14:25N 33°45' W 118°13'0 0.0
2018-Jul-15 14:00N 33°45' W 118°13'0 0.0
2018-Jul-15 13:30N 33°45' W 118°13'0 0.0
2018-Jul-15 13:00N 33°45' W 118°13'0 0.0
2018-Jul-15 12:29N 33°45' W 118°13'0 0.0
2018-Jul-15 11:58N 33°45' W 118°13'0 0.0
2018-Jul-15 11:30N 33°45' W 118°13'0 0.0
2018-Jul-15 10:59N 33°45' W 118°13'0 0.0
2018-Jul-15 10:30N 33°45' W 118°13'0 0.0
2018-Jul-15 09:59N 33°45' W 118°13'0 0.0
2018-Jul-15 09:30N 33°45' W 118°13'0 0.0
2018-Jul-15 08:56N 33°45' W 118°13'0 0.0
2018-Jul-15 08:31N 33°45' W 118°13'0 0.0
2018-Jul-15 08:00N 33°45' W 118°13'0 0.0
2018-Jul-15 07:31N 33°45' W 118°13'0 0.0
2018-Jul-15 07:00N 33°45' W 118°13'0 0.0
2018-Jul-15 06:29N 33°45' W 118°13'0 0.0
2018-Jul-15 06:00N 33°45' W 118°13'0 0.0
2018-Jul-15 05:30N 33°45' W 118°13'0 0.0
2018-Jul-15 04:59N 33°45' W 118°13'0 0.0
2018-Jul-15 04:30N 33°45' W 118°13'0 0.0
2018-Jul-15 04:00N 33°45' W 118°13'0 0.0
2018-Jul-15 03:30N 33°45' W 118°13'0 0.0
2018-Jul-15 03:00N 33°45' W 118°13'0 0.0
2018-Jul-15 02:29N 33°45' W 118°13'0 0.0
2018-Jul-15 01:58N 33°45' W 118°13'0 0.0
2018-Jul-15 01:30N 33°45' W 118°13'0 0.0
2018-Jul-15 01:01N 33°45' W 118°13'0 0.0
2018-Jul-15 00:31N 33°45' W 118°13'0 0.0
2018-Jul-15 00:00N 33°45' W 118°13'0 0.0
2018-Jul-14 23:30N 33°45' W 118°13'0 0.0
2018-Jul-14 22:59N 33°45' W 118°13'0 0.0
2018-Jul-14 22:29N 33°45' W 118°13'0 0.0
2018-Jul-14 21:59N 33°45' W 118°13'0 0.0
2018-Jul-14 21:25N 33°45' W 118°13'0 0.0
2018-Jul-14 20:45N 33°45' W 118°13'0 0.0
2018-Jul-14 20:29N 33°45' W 118°13'0 0.0
2018-Jul-14 20:00N 33°45' W 118°13'0 0.0
2018-Jul-14 19:28N 33°45' W 118°13'3 5.9
2018-Jul-14 19:00N 33°44' W 118°16'0 0.0
2018-Jul-14 18:30N 33°44' W 118°16'3 5.5
2018-Jul-14 18:00N 33°45' W 118°13'0 0.0
2018-Jul-14 17:30N 33°45' W 118°13'0 0.0
2018-Jul-14 17:00N 33°45' W 118°13'0 0.0
2018-Jul-14 16:29N 33°45' W 118°13'0 0.0
2018-Jul-14 16:00N 33°45' W 118°13'0 0.0
2018-Jul-14 15:28N 33°45' W 118°13'0 0.0
2018-Jul-14 14:59N 33°45' W 118°13'0 0.0
2018-Jul-14 14:29N 33°45' W 118°13'0 0.0
2018-Jul-14 13:25N 33°45' W 118°13'0 0.0
2018-Jul-14 12:42N 33°45' W 118°13'0 0.0
2018-Jul-14 12:24N 33°45' W 118°13'0 0.0
2018-Jul-14 11:51N 33°45' W 118°13'0 0.0
2018-Jul-14 11:24N 33°45' W 118°13'0 0.0
2018-Jul-14 10:54N 33°45' W 118°13'0 0.0
2018-Jul-14 10:30N 33°45' W 118°13'0 0.0
2018-Jul-14 10:00N 33°45' W 118°13'0 0.0
2018-Jul-14 09:30N 33°45' W 118°13'0 0.0
2018-Jul-14 08:59N 33°45' W 118°13'0 0.0
2018-Jul-14 08:30N 33°45' W 118°13'0 0.0
2018-Jul-14 08:00N 33°45' W 118°13'0 0.0
2018-Jul-14 07:30N 33°45' W 118°13'0 0.0
2018-Jul-14 06:56N 33°45' W 118°13'0 0.0
2018-Jul-14 06:29N 33°45' W 118°13'0 0.0
2018-Jul-14 06:00N 33°45' W 118°13'0 0.0
2018-Jul-14 05:30N 33°45' W 118°13'0 0.0
2018-Jul-14 05:00N 33°45' W 118°13'0 0.0
2018-Jul-14 04:30N 33°45' W 118°13'0 0.0
2018-Jul-14 04:00N 33°45' W 118°13'0 0.0
2018-Jul-14 03:30N 33°45' W 118°13'0 0.0
2018-Jul-14 02:59N 33°45' W 118°13'0 0.0
2018-Jul-14 02:30N 33°45' W 118°13'2 4.8
2018-Jul-14 02:00N 33°43' W 118°11'1 2.2
2018-Jul-14 01:30N 33°44' W 118°11'3 5.0
2018-Jul-14 01:00N 33°42' W 118°09'2 3.4
2018-Jul-14 00:30N 33°43' W 118°11'2 4.3
2018-Jul-13 23:59N 33°44' W 118°13'1 1.3
2018-Jul-13 23:30N 33°45' W 118°13'1 2.3
2018-Jul-13 23:01N 33°44' W 118°12'1 2.0
2018-Jul-13 22:26N 33°45' W 118°13'0 0.0
2018-Jul-13 21:57N 33°45' W 118°13'0 0.0
2018-Jul-13 21:29N 33°45' W 118°13'0 0.0
2018-Jul-13 20:51N 33°45' W 118°13'0 0.0
2018-Jul-13 20:27N 33°45' W 118°13'0 0.0
2018-Jul-13 20:00N 33°45' W 118°13'0 0.0
2018-Jul-13 19:30N 33°45' W 118°13'611.5
2018-Jul-13 19:00N 33°41' W 118°08'3 6.3
2018-Jul-13 18:30N 33°44' W 118°09'4 7.1
2018-Jul-13 17:59N 33°45' W 118°13'0 0.1
2018-Jul-13 17:24N 33°45' W 118°13'2 5.5
2018-Jul-13 17:00N 33°44' W 118°10'0 0.4
2018-Jul-13 16:30N 33°44' W 118°10'1 0.1
2018-Jul-12 22:36N 33°43' W 118°11'1 6.3
2018-Jul-12 22:30N 33°44' W 118°11'2 3.1
2018-Jul-12 21:58N 33°45' W 118°13'0 0.0
2018-Jul-12 21:29N 33°45' W 118°13'4 8.3
2018-Jul-12 21:00N 33°41' W 118°10'0 0.4
2018-Jul-12 20:31N 33°41' W 118°10'4 7.9
2018-Jul-12 19:59N 33°45' W 118°13'0 0.0
2018-Jul-12 19:30N 33°45' W 118°13'0 0.0
2018-Jul-12 19:00N 33°45' W 118°13'0 0.0
2018-Jul-12 18:30N 33°45' W 118°13'3 6.6
2018-Jul-12 18:01N 33°42' W 118°10'2 3.3
2018-Jul-12 17:30N 33°44' W 118°12'1 1.9
2018-Jul-12 17:00N 33°44' W 118°13'2 4.2
2018-Jul-12 16:29N 33°46' W 118°13'1 2.6
2018-Jul-12 15:59N 33°45' W 118°13'0 0.0
2018-Jul-12 15:25N 33°45' W 118°13'0 0.0
2018-Jul-12 14:53N 33°45' W 118°13'3 8.1
2018-Jul-12 14:31N 33°42' W 118°11'3 5.3
2018-Jul-12 13:57N 33°45' W 118°13'1 1.8
2018-Jul-12 13:31N 33°45' W 118°14'1 1.1
2018-Jul-12 12:45N 33°45' W 118°13'0 0.0
2018-Jul-12 12:29N 33°45' W 118°13'0 0.0
2018-Jul-12 11:37N 33°45' W 118°13'0 0.0
2018-Jul-12 11:29N 33°45' W 118°13'0 0.0
2018-Jul-12 10:56N 33°45' W 118°13'0 0.0
2018-Jul-12 10:28N 33°45' W 118°13'0 0.0
2018-Jul-12 09:41N 33°45' W 118°13'0 0.0
2018-Jul-12 09:23N 33°45' W 118°13'0 0.0
2018-Jul-12 08:49N 33°45' W 118°13'0 0.0
2018-Jul-12 08:26N 33°45' W 118°13'0 0.0
2018-Jul-12 08:00N 33°45' W 118°13'0 0.0
2018-Jul-12 07:21N 33°45' W 118°13'0 0.0
2018-Jul-12 06:45N 33°45' W 118°13'0 0.0
2018-Jul-12 05:49N 33°45' W 118°13'0 0.0
2018-Jul-12 05:29N 33°45' W 118°13'0 0.0
2018-Jul-12 04:58N 33°45' W 118°13'0 0.0
2018-Jul-12 04:26N 33°45' W 118°13'0 0.0
2018-Jul-12 03:59N 33°45' W 118°13'0 0.0
2018-Jul-12 03:30N 33°45' W 118°13'0 0.0
2018-Jul-12 03:00N 33°45' W 118°13'0 0.0
2018-Jul-12 02:30N 33°45' W 118°13'0 0.0
2018-Jul-12 02:00N 33°45' W 118°13'0 0.0
2018-Jul-12 01:30N 33°45' W 118°13'0 0.0
2018-Jul-12 00:56N 33°45' W 118°13'0 0.0
2018-Jul-12 00:30N 33°45' W 118°13'0 0.0
2018-Jul-12 00:00N 33°45' W 118°13'0 0.0
2018-Jul-11 23:29N 33°45' W 118°13'0 0.0
2018-Jul-11 22:57N 33°45' W 118°13'3 7.2
2018-Jul-11 22:31N 33°42' W 118°11'3 6.3
2018-Jul-11 22:00N 33°45' W 118°13'0 0.0
2018-Jul-11 21:30N 33°45' W 118°13'3 7.0
2018-Jul-11 21:01N 33°42' W 118°11'3 6.8
2018-Jul-11 20:29N 33°45' W 118°13'3 6.2
2018-Jul-11 20:01N 33°42' W 118°11'3 6.0
2018-Jul-11 19:30N 33°45' W 118°13'0 0.0
2018-Jul-11 18:59N 33°45' W 118°13'1 1.9
2018-Jul-11 18:27N 33°44' W 118°13'1 1.7
2018-Jul-11 18:01N 33°44' W 118°12'1 2.4
2018-Jul-11 17:24N 33°45' W 118°13'1 3.0
2018-Jul-11 17:00N 33°44' W 118°14'2 2.9
2018-Jul-11 16:15N 33°44' W 118°16'2 7.7
2018-Jul-11 16:00N 33°43' W 118°14'1 2.8
2018-Jul-11 15:30N 33°44' W 118°13'611.7
2018-Jul-11 15:00N 33°40' W 118°09'6 6.9
2018-Jul-11 14:08N 33°45' W 118°13'0 0.0
2018-Jul-11 13:54N 33°45' W 118°13'4 9.4
2018-Jul-11 13:30N 33°42' W 118°11'1 2.2
2018-Jul-11 13:00N 33°43' W 118°11'2 4.8
2018-Jul-11 12:30N 33°45' W 118°13'0 0.6
2018-Jul-11 12:00N 33°45' W 118°13'3 5.5
2018-Jul-11 11:30N 33°42' W 118°11'3 6.5
2018-Jul-11 10:59N 33°39' W 118°11'6 4.7
2018-Jul-11 09:44N 33°45' W 118°13'0 0.0
2018-Jul-11 09:28N 33°45' W 118°13'0 0.0
2018-Jul-11 08:57N 33°45' W 118°13'0 0.0
2018-Jul-11 08:29N 33°45' W 118°13'0 0.0
2018-Jul-11 07:56N 33°45' W 118°13'0 0.0
2018-Jul-11 07:22N 33°45' W 118°13'0 0.0
2018-Jul-11 07:00N 33°45' W 118°13'2 4.6
2018-Jul-11 06:30N 33°43' W 118°14'2 4.2
2018-Jul-11 05:57N 33°45' W 118°13'1 2.1
2018-Jul-11 05:31N 33°44' W 118°12'1 1.7
2018-Jul-11 04:57N 33°45' W 118°13'0 0.0
2018-Jul-11 04:28N 33°45' W 118°13'0 0.0
2018-Jul-11 04:00N 33°45' W 118°13'0 0.0
2018-Jul-11 03:28N 33°45' W 118°13'0 0.0
2018-Jul-11 03:00N 33°45' W 118°13'3 5.6
2018-Jul-11 02:30N 33°44' W 118°10'0 0.9
2018-Jul-11 01:59N 33°44' W 118°10'2 5.2
2018-Jul-11 01:31N 33°45' W 118°13'0 0.2
2018-Jul-11 00:59N 33°45' W 118°13'0 0.0
2018-Jul-11 00:24N 33°45' W 118°13'0 0.0
2018-Jul-11 00:00N 33°45' W 118°13'0 0.0
2018-Jul-10 23:29N 33°45' W 118°13'0 0.0
2018-Jul-10 22:51N 33°45' W 118°13'0 0.0
2018-Jul-10 19:22N 33°45' W 118°13'0 0.0
2018-Jul-10 18:53N 33°45' W 118°13'4 9.2
2018-Jul-10 18:29N 33°44' W 118°09'1 1.3
2018-Jul-10 17:58N 33°44' W 118°09'2 3.5
2018-Jul-10 17:30N 33°44' W 118°11'2 3.3
2018-Jul-10 16:57N 33°45' W 118°13'0 0.0
2018-Jul-10 16:29N 33°45' W 118°13'0 0.0
2018-Jul-10 15:48N 33°45' W 118°13'0 0.0
2018-Jul-10 15:28N 33°45' W 118°13'0 0.0
2018-Jul-10 15:00N 33°45' W 118°13'0 0.0
2018-Jul-10 14:30N 33°45' W 118°13'0 0.0
2018-Jul-10 13:58N 33°45' W 118°13'0 0.0
2018-Jul-10 13:30N 33°45' W 118°13'0 0.0
2018-Jul-10 13:00N 33°45' W 118°13'0 0.0
2018-Jul-10 12:20N 33°45' W 118°13'0 0.0
2018-Jul-10 11:58N 33°45' W 118°13'0 0.0
2018-Jul-10 11:26N 33°45' W 118°13'0 0.0
2018-Jul-10 10:56N 33°45' W 118°13'0 0.0
2018-Jul-10 10:18N 33°45' W 118°13'0 0.0
2018-Jul-10 09:55N 33°45' W 118°13'0 0.0
2018-Jul-10 09:10N 33°45' W 118°13'0 0.0
2018-Jul-10 09:00N 33°45' W 118°13'0 0.0
2018-Jul-10 08:22N 33°45' W 118°13'0 0.0
2018-Jul-10 08:00N 33°45' W 118°13'0 0.0
2018-Jul-10 07:29N 33°45' W 118°13'0 0.0
2018-Jul-10 06:54N 33°45' W 118°13'0 0.0
2018-Jul-10 06:28N 33°45' W 118°13'0 0.0
2018-Jul-10 06:00N 33°45' W 118°13'0 0.0
2018-Jul-10 05:30N 33°45' W 118°13'0 0.0
2018-Jul-10 04:54N 33°45' W 118°13'0 0.0
2018-Jul-10 04:30N 33°45' W 118°13'0 0.0
2018-Jul-10 03:56N 33°45' W 118°13'0 0.0
2018-Jul-10 03:30N 33°45' W 118°13'0 0.0
2018-Jul-10 03:00N 33°45' W 118°13'0 0.0
2018-Jul-10 02:30N 33°45' W 118°13'0 0.0
2018-Jul-10 02:00N 33°45' W 118°13'0 0.0
2018-Jul-10 01:30N 33°45' W 118°13'0 0.0
2018-Jul-10 01:00N 33°45' W 118°13'0 0.0
2018-Jul-10 00:28N 33°45' W 118°13'0 0.0
2018-Jul-09 23:58N 33°45' W 118°13'0 0.0
2018-Jul-09 23:29N 33°45' W 118°13'0 0.0
2018-Jul-09 22:58N 33°45' W 118°13'0 0.0
2018-Jul-09 22:30N 33°45' W 118°13'0 0.0
2018-Jul-09 21:59N 33°45' W 118°13'0 0.0
2018-Jul-09 21:26N 33°45' W 118°13'0 0.0
2018-Jul-09 20:52N 33°45' W 118°13'0 0.0
2018-Jul-09 20:28N 33°45' W 118°13'0 0.0
2018-Jul-09 19:59N 33°45' W 118°13'0 0.0
2018-Jul-09 19:21N 33°45' W 118°13'0 0.0
2018-Jul-09 18:59N 33°45' W 118°13'0 0.0
2018-Jul-09 18:30N 33°45' W 118°13'0 0.0
2018-Jul-09 17:46N 33°45' W 118°13'0 0.0
2018-Jul-09 17:29N 33°45' W 118°13'0 0.0
2018-Jul-09 16:47N 33°45' W 118°13'0 0.0
2018-Jul-09 16:17N 33°45' W 118°13'0 0.0
2018-Jul-09 15:59N 33°45' W 118°13'0 0.0
2018-Jul-09 15:28N 33°45' W 118°13'0 0.0
2018-Jul-09 14:58N 33°45' W 118°13'0 0.0
2018-Jul-09 14:28N 33°45' W 118°13'0 0.0
2018-Jul-09 13:56N 33°45' W 118°13'0 0.0
2018-Jul-09 13:27N 33°45' W 118°13'0 0.0
2018-Jul-09 12:58N 33°45' W 118°13'0 0.0
2018-Jul-09 12:26N 33°45' W 118°13'0 0.0
2018-Jul-09 11:53N 33°45' W 118°13'0 0.0
2018-Jul-09 11:14N 33°45' W 118°13'0 0.0
2018-Jul-09 10:50N 33°45' W 118°13'0 0.0
2018-Jul-09 10:03N 33°45' W 118°13'0 0.0
2018-Jul-09 09:55N 33°45' W 118°13'0 0.0
2018-Jul-09 09:30N 33°45' W 118°13'0 0.0
2018-Jul-09 09:00N 33°45' W 118°13'0 0.0
2018-Jul-09 08:30N 33°45' W 118°13'0 0.0
2018-Jul-09 08:00N 33°45' W 118°13'0 0.0
2018-Jul-09 07:30N 33°45' W 118°13'0 0.0
2018-Jul-09 06:59N 33°45' W 118°13'0 0.0
2018-Jul-09 06:27N 33°45' W 118°13'0 0.0
2018-Jul-09 05:58N 33°45' W 118°13'0 0.0
2018-Jul-09 05:30N 33°45' W 118°13'0 0.0
2018-Jul-09 04:57N 33°45' W 118°13'0 0.0
2018-Jul-09 04:05N 33°45' W 118°13'0 0.0
2018-Jul-09 03:54N 33°45' W 118°13'0 0.0
2018-Jul-09 03:28N 33°45' W 118°13'0 0.0
2018-Jul-09 02:54N 33°45' W 118°13'0 0.0
2018-Jul-09 02:29N 33°45' W 118°13'0 0.0
2018-Jul-09 01:52N 33°45' W 118°13'0 0.0
2018-Jul-09 01:25N 33°45' W 118°13'0 0.0
2018-Jul-09 01:00N 33°45' W 118°13'0 0.0
2018-Jul-09 00:28N 33°45' W 118°13'0 0.0
2018-Jul-08 23:59N 33°45' W 118°13'0 0.0
2018-Jul-08 23:24N 33°45' W 118°13'0 0.0
2018-Jul-08 23:00N 33°45' W 118°13'0 0.0
2018-Jul-08 22:30N 33°45' W 118°13'0 0.0
2018-Jul-08 21:48N 33°45' W 118°13'0 0.0
2018-Jul-08 21:30N 33°45' W 118°13'0 0.0
2018-Jul-08 20:59N 33°45' W 118°13'0 0.0
2018-Jul-08 20:27N 33°45' W 118°13'0 0.0
2018-Jul-08 19:57N 33°45' W 118°13'0 0.0
2018-Jul-08 19:30N 33°45' W 118°13'0 0.0
2018-Jul-08 18:57N 33°45' W 118°13'0 0.0
2018-Jul-08 18:10N 33°45' W 118°13'0 0.0
2018-Jul-08 17:54N 33°45' W 118°13'0 0.0
2018-Jul-08 17:14N 33°45' W 118°13'0 0.0
2018-Jul-08 16:54N 33°45' W 118°13'0 0.0
2018-Jul-08 16:30N 33°45' W 118°13'0 0.0
2018-Jul-08 16:00N 33°45' W 118°13'0 0.0
2018-Jul-08 15:30N 33°45' W 118°13'0 0.0
2018-Jul-08 15:00N 33°45' W 118°13'0 0.0
2018-Jul-08 14:29N 33°45' W 118°13'0 0.0
2018-Jul-08 13:57N 33°45' W 118°13'0 0.0
2018-Jul-08 13:23N 33°45' W 118°13'0 0.0
2018-Jul-08 12:57N 33°45' W 118°13'0 0.0
2018-Jul-08 12:27N 33°45' W 118°13'0 0.0
2018-Jul-08 12:00N 33°45' W 118°13'0 0.0
2018-Jul-08 11:29N 33°45' W 118°13'0 0.0
2018-Jul-08 10:52N 33°45' W 118°13'4 9.8
2018-Jul-08 10:31N 33°44' W 118°09'4 6.6
2018-Jul-08 09:58N 33°45' W 118°13'0 0.0
2018-Jul-08 09:28N 33°45' W 118°13'0 0.0
2018-Jul-08 08:51N 33°45' W 118°13'0 0.0
2018-Jul-08 08:23N 33°45' W 118°13'0 0.0
2018-Jul-08 07:57N 33°45' W 118°13'0 0.0
2018-Jul-08 07:27N 33°45' W 118°13'0 0.0
2018-Jul-08 06:53N 33°45' W 118°13'0 0.0
2018-Jul-08 06:30N 33°45' W 118°13'0 0.0
2018-Jul-08 05:53N 33°45' W 118°13'0 0.0
2018-Jul-08 05:25N 33°45' W 118°13'0 0.0
2018-Jul-08 04:58N 33°45' W 118°13'3 6.5
2018-Jul-08 04:31N 33°44' W 118°10'1 1.9
2018-Jul-08 04:00N 33°44' W 118°11'2 3.4
2018-Jul-08 03:24N 33°45' W 118°13'0 0.0
2018-Jul-08 03:00N 33°45' W 118°13'0 0.0
2018-Jul-08 02:29N 33°45' W 118°13'0 0.0
2018-Jul-08 01:57N 33°45' W 118°13'0 0.0
2018-Jul-08 01:30N 33°45' W 118°13'0 0.0
2018-Jul-08 00:59N 33°45' W 118°13'0 0.0
2018-Jul-08 00:29N 33°45' W 118°13'0 0.0
2018-Jul-08 00:00N 33°45' W 118°13'2 4.5
2018-Jul-07 23:30N 33°43' W 118°11'0 0.7
2018-Jul-07 23:00N 33°43' W 118°11'2 3.5
2018-Jul-07 22:30N 33°44' W 118°13'1 1.1
2018-Jul-07 21:54N 33°45' W 118°13'512.4
2018-Jul-07 21:30N 33°41' W 118°09'4 8.8
2018-Jul-07 21:01N 33°44' W 118°12'3 6.9
2018-Jul-07 20:30N 33°41' W 118°11'4 8.6
2018-Jul-07 20:01N 33°45' W 118°13'2 3.3
2018-Jul-07 19:30N 33°44' W 118°11'0 0.1
2018-Jul-07 19:00N 33°44' W 118°11'1 1.6
2018-Jul-07 18:30N 33°43' W 118°11'2 3.4
2018-Jul-07 17:53N 33°45' W 118°13'0 0.0
2018-Jul-07 17:28N 33°45' W 118°13'3 5.8
2018-Jul-07 16:59N 33°44' W 118°16'0 0.2
2018-Jul-07 16:30N 33°44' W 118°16'3 4.3
2018-Jul-07 15:53N 33°45' W 118°13'0 0.0
2018-Jul-07 15:30N 33°45' W 118°13'0 0.0
2018-Jul-07 14:59N 33°45' W 118°13'0 0.0
2018-Jul-07 14:29N 33°45' W 118°13'0 0.0
2018-Jul-07 14:00N 33°45' W 118°13'2 4.3
2018-Jul-07 13:31N 33°43' W 118°12'1 1.6
2018-Jul-07 13:01N 33°43' W 118°11'2 3.8
2018-Jul-07 12:31N 33°42' W 118°11'3 6.7
2018-Jul-07 11:59N 33°45' W 118°13'0 0.0
2018-Jul-07 11:25N 33°45' W 118°13'0 0.0
2018-Jul-07 10:57N 33°45' W 118°13'0 0.0
2018-Jul-07 10:30N 33°45' W 118°13'0 0.0
2018-Jul-07 10:00N 33°45' W 118°13'0 0.2
2018-Jul-07 09:31N 33°45' W 118°13'0 0.0
2018-Jul-07 09:00N 33°45' W 118°13'0 0.1
2018-Jul-07 08:30N 33°45' W 118°13'0 0.0
2018-Jul-07 08:00N 33°45' W 118°13'1 1.5
2018-Jul-07 07:27N 33°46' W 118°13'1 1.8
2018-Jul-07 07:00N 33°45' W 118°13'0 0.0
2018-Jul-07 06:30N 33°45' W 118°13'0 0.0
2018-Jul-07 06:00N 33°45' W 118°13'0 0.0
2018-Jul-07 05:30N 33°45' W 118°13'5 9.2
2018-Jul-07 05:01N 33°41' W 118°10'2 4.2
2018-Jul-07 04:29N 33°43' W 118°11'1 1.9
2018-Jul-07 03:59N 33°44' W 118°12'1 2.9
2018-Jul-07 03:29N 33°45' W 118°13'0 0.0
2018-Jul-07 02:59N 33°45' W 118°13'0 0.0
2018-Jul-07 02:29N 33°45' W 118°13'1 2.2
2018-Jul-07 02:00N 33°44' W 118°13'2 4.7
2018-Jul-07 01:30N 33°45' W 118°11'0 0.2
2018-Jul-07 01:00N 33°45' W 118°11'2 3.3
2018-Jul-07 00:29N 33°46' W 118°13'1 1.3
2018-Jul-06 23:55N 33°45' W 118°13'0 0.0
2018-Jul-06 23:30N 33°45' W 118°13'0 0.0
2018-Jul-06 22:59N 33°45' W 118°13'0 0.0
2018-Jul-06 22:30N 33°45' W 118°13'0 0.0
2018-Jul-06 22:00N 33°45' W 118°13'0 0.0
2018-Jul-06 21:30N 33°45' W 118°13'0 0.0
2018-Jul-06 20:57N 33°45' W 118°13'0 0.0
2018-Jul-06 20:29N 33°45' W 118°13'1 1.3
2018-Jul-06 19:59N 33°46' W 118°13'1 1.4
2018-Jul-06 19:30N 33°45' W 118°13'0 0.0
2018-Jul-06 18:54N 33°45' W 118°13'3 7.0
2018-Jul-06 18:30N 33°43' W 118°16'3 5.5
2018-Jul-06 18:00N 33°44' W 118°13'1 1.1
2018-Jul-06 17:29N 33°45' W 118°13'0 0.0
2018-Jul-06 17:00N 33°45' W 118°13'0 0.0
2018-Jul-06 16:31N 33°45' W 118°13'0 0.0
2018-Jul-06 16:00N 33°45' W 118°13'0 0.0
2018-Jul-06 15:29N 33°45' W 118°13'0 0.0
2018-Jul-06 14:59N 33°45' W 118°13'0 0.0
2018-Jul-06 14:31N 33°45' W 118°13'0 0.0
2018-Jul-06 13:57N 33°45' W 118°13'0 0.0
2018-Jul-06 13:30N 33°45' W 118°13'0 0.0
2018-Jul-06 13:00N 33°45' W 118°13'0 0.0
2018-Jul-06 12:29N 33°45' W 118°13'0 0.0
2018-Jul-06 11:58N 33°45' W 118°13'0 0.0
2018-Jul-06 11:31N 33°45' W 118°13'0 0.0
2018-Jul-06 11:00N 33°45' W 118°13'0 0.0
2018-Jul-06 10:29N 33°45' W 118°13'  

Dump ship's entire track history